Time;durP1;ratioP1;P1;durP2;ratioP2;P2;SDS_P1;SDS_P2;PMS_P1;PMS_P2;Temp;Humidity;BMP_temperature;BMP_pressure;BME280_temperature;BME280_humidity;BME280_pressure;Samples;Min_cycle;Max_cycle;Signal;HPM_P1;HPM_P2
2023/09/20 00:00:27;;;;;;;5.30;1.20;;;;;;;13.45;89.82;95777.08;106658;1275;22648;-79
2023/09/20 00:03:15;;;;;;;2.30;1.00;;;;;;;13.45;89.78;95781.49;106834;1275;25236;-79
2023/09/20 00:05:44;;;;;;;4.40;1.10;;;;;;;13.49;89.93;95781.21;106618;1275;25348;-79
2023/09/20 00:08:12;;;;;;;2.80;0.80;;;;;;;13.46;89.12;95780.77;106629;1275;22597;-78
2023/09/20 00:10:41;;;;;;;2.80;1.00;;;;;;;13.33;89.13;95788.71;106773;1275;25297;-79
2023/09/20 00:13:10;;;;;;;3.40;0.90;;;;;;;13.20;89.47;95791.32;106616;1275;22533;-78
2023/09/20 00:15:42;;;;;;;4.50;1.00;;;;;;;13.16;89.96;95793.53;106632;1275;24673;-78
2023/09/20 00:18:11;;;;;;;2.20;0.70;;;;;;;13.11;89.75;95792.09;106753;1275;22664;-78
2023/09/20 00:20:39;;;;;;;4.30;0.90;;;;;;;13.05;90.28;95791.16;106661;1275;22577;-78
2023/09/20 00:23:09;;;;;;;3.60;1.10;;;;;;;13.06;90.65;95796.77;106761;1275;25421;-78
2023/09/20 00:25:37;;;;;;;2.20;0.70;;;;;;;13.04;90.24;95797.88;106631;1275;24063;-78
2023/09/20 00:28:06;;;;;;;0.90;0.70;;;;;;;13.03;90.72;95803.40;106656;1275;24289;-78
2023/09/20 00:30:36;;;;;;;4.90;1.10;;;;;;;12.99;90.19;95807.20;106751;1275;22535;-78
2023/09/20 00:33:05;;;;;;;2.80;0.90;;;;;;;12.99;90.83;95803.30;106657;1275;22532;-78
2023/09/20 00:35:39;;;;;;;4.00;0.90;;;;;;;12.95;90.69;95812.05;106799;1275;24412;-78
2023/09/20 00:38:08;;;;;;;3.90;1.00;;;;;;;12.91;90.67;95813.38;106830;1275;23150;-79
2023/09/20 00:40:37;;;;;;;3.80;0.90;;;;;;;12.87;90.66;95815.25;106675;1275;24291;-79
2023/09/20 00:43:08;;;;;;;1.90;0.90;;;;;;;12.85;90.85;95816.02;106695;1275;24240;-79
2023/09/20 00:45:40;;;;;;;2.30;0.90;;;;;;;12.87;91.00;95811.55;106741;1275;24385;-79
2023/09/20 00:48:12;;;;;;;3.20;1.10;;;;;;;12.83;90.69;95812.18;106761;1275;24254;-79
2023/09/20 00:50:42;;;;;;;5.70;1.00;;;;;;;12.80;90.55;95817.21;106668;1275;25372;-79
2023/09/20 00:53:12;;;;;;;4.00;0.80;;;;;;;12.76;90.27;95815.17;106818;1264;24330;-79
2023/09/20 00:55:42;;;;;;;4.90;0.90;;;;;;;12.73;90.35;95819.48;106657;1275;22550;-78
2023/09/20 00:58:15;;;;;;;2.10;0.80;;;;;;;12.75;90.53;95824.37;106716;1275;22542;-79
2023/09/20 01:00:43;;;;;;;2.00;0.90;;;;;;;12.77;90.50;95827.68;106619;1275;25494;-79
2023/09/20 01:03:18;;;;;;;3.00;0.90;;;;;;;12.81;90.48;95826.35;106853;1275;22557;-79
2023/09/20 01:05:48;;;;;;;1.40;0.90;;;;;;;12.85;90.36;95826.61;106744;1275;23873;-79
2023/09/20 01:08:17;;;;;;;2.20;0.90;;;;;;;12.79;89.75;95823.04;106645;1266;22650;-79
2023/09/20 01:10:48;;;;;;;2.70;0.70;;;;;;;12.77;90.10;95823.95;106693;1261;25487;-80
2023/09/20 01:13:18;;;;;;;5.70;1.00;;;;;;;12.78;89.31;95823.95;106774;1275;22524;-79
2023/09/20 01:15:48;;;;;;;1.40;1.00;;;;;;;12.72;89.45;95824.06;106709;1275;24258;-79
2023/09/20 01:18:16;;;;;;;1.90;1.20;;;;;;;12.68;89.41;95828.58;106647;1275;22635;-78
2023/09/20 01:20:44;;;;;;;3.30;0.90;;;;;;;12.68;89.62;95827.52;106866;1275;22531;-78
2023/09/20 01:23:13;;;;;;;2.70;1.20;;;;;;;12.64;89.23;95827.63;106645;1275;22661;-78
2023/09/20 01:25:43;;;;;;;2.80;1.30;;;;;;;12.60;89.72;95832.48;106699;1275;22543;-78
2023/09/20 01:28:13;;;;;;;4.20;1.50;;;;;;;12.60;90.21;95834.25;106767;1275;22674;-78
2023/09/20 01:30:41;;;;;;;4.10;1.20;;;;;;;12.54;89.89;95830.52;106690;1275;25581;-78
2023/09/20 01:33:12;;;;;;;1.60;0.90;;;;;;;12.45;89.73;95832.65;106854;1275;22531;-78
2023/09/20 01:35:45;;;;;;;3.50;1.00;;;;;;;12.43;89.75;95832.52;106715;1275;22657;-78
2023/09/20 01:38:13;;;;;;;1.50;0.60;;;;;;;12.29;89.38;95839.69;106659;1275;22550;-78
2023/09/20 01:40:41;;;;;;;4.80;0.90;;;;;;;12.19;89.71;95840.79;106657;1275;23011;-78
2023/09/20 01:43:11;;;;;;;3.60;0.90;;;;;;;12.07;89.63;95842.44;106693;1275;22924;-78
2023/09/20 01:45:42;;;;;;;1.60;1.00;;;;;;;12.02;90.10;95838.66;106693;1275;24432;-78
2023/09/20 01:48:11;;;;;;;2.10;0.90;;;;;;;11.99;90.52;95838.02;106901;1275;22625;-78
2023/09/20 01:50:41;;;;;;;4.10;1.10;;;;;;;11.98;90.59;95838.73;106638;1275;26644;-78
2023/09/20 01:53:11;;;;;;;1.80;0.80;;;;;;;11.97;91.15;95835.60;106693;1275;22520;-78
2023/09/20 01:55:42;;;;;;;4.50;1.30;;;;;;;11.94;90.98;95839.52;106808;1275;24268;-78
2023/09/20 01:58:13;;;;;;;3.70;1.00;;;;;;;11.92;91.60;95847.86;106715;1275;22533;-78
2023/09/20 02:00:43;;;;;;;3.40;1.10;;;;;;;11.86;91.82;95845.84;106696;1275;22527;-78
2023/09/20 02:03:16;;;;;;;4.90;1.00;;;;;;;11.82;91.89;95842.20;106807;1275;25529;-78
2023/09/20 02:05:48;;;;;;;5.20;1.20;;;;;;;11.82;91.80;95841.85;106649;1275;24271;-78
2023/09/20 02:08:18;;;;;;;5.20;1.20;;;;;;;11.84;91.74;95844.11;106751;1275;22527;-78
2023/09/20 02:10:47;;;;;;;3.50;1.00;;;;;;;11.88;92.30;95849.14;106749;1275;22521;-78
2023/09/20 02:13:18;;;;;;;1.30;0.90;;;;;;;11.94;91.99;95848.17;106666;1275;22709;-78
2023/09/20 02:15:47;;;;;;;3.20;0.90;;;;;;;11.91;91.31;95846.64;106731;1275;22539;-78
2023/09/20 02:18:16;;;;;;;4.50;1.10;;;;;;;11.87;91.45;95848.64;106850;1275;24508;-78
2023/09/20 02:20:44;;;;;;;3.20;1.00;;;;;;;11.83;91.09;95846.94;106658;1275;22761;-78
2023/09/20 02:23:12;;;;;;;2.30;0.90;;;;;;;11.77;90.69;95847.59;106806;1275;22535;-78
2023/09/20 02:25:43;;;;;;;1.50;1.00;;;;;;;11.73;90.97;95844.67;106700;1275;24256;-78
2023/09/20 02:28:12;;;;;;;1.00;0.80;;;;;;;11.71;90.91;95843.29;106676;1275;24390;-78
2023/09/20 02:30:42;;;;;;;4.80;1.40;;;;;;;11.69;90.99;95842.61;106750;1275;23771;-78
2023/09/20 02:33:14;;;;;;;5.50;1.20;;;;;;;11.76;91.56;95840.02;106688;1275;22636;-78
2023/09/20 02:35:45;;;;;;;1.60;1.20;;;;;;;11.77;91.09;95844.93;106690;1275;22524;-78
2023/09/20 02:38:14;;;;;;;3.10;0.90;;;;;;;11.74;90.77;95846.06;106793;1275;26105;-78
2023/09/20 02:40:46;;;;;;;2.20;0.80;;;;;;;11.74;91.05;95846.23;106591;1255;24377;-78
2023/09/20 02:43:16;;;;;;;1.40;0.80;;;;;;;11.77;91.03;95846.70;106759;1275;22999;-78
2023/09/20 02:45:45;;;;;;;1.30;0.90;;;;;;;11.83;91.14;95843.42;106688;1275;22671;-78
2023/09/20 02:48:14;;;;;;;5.30;1.00;;;;;;;11.79;89.94;95849.86;106700;1275;22544;-78
2023/09/20 02:50:44;;;;;;;4.10;1.60;;;;;;;11.73;89.84;95848.36;106741;1263;24327;-78
2023/09/20 02:53:14;;;;;;;3.30;1.90;;;;;;;11.64;89.52;95848.88;106663;1275;25559;-78
2023/09/20 02:55:42;;;;;;;2.30;1.40;;;;;;;11.59;90.14;95852.50;106672;1275;22527;-78
2023/09/20 02:58:12;;;;;;;3.10;1.30;;;;;;;11.56;90.47;95851.48;106744;1275;23876;-77
2023/09/20 03:00:46;;;;;;;1.60;1.50;;;;;;;11.58;90.65;95851.11;106625;1275;22531;-78
2023/09/20 03:03:17;;;;;;;7.20;1.50;;;;;;;11.57;90.21;95851.29;106688;1275;25405;-77
2023/09/20 03:05:46;;;;;;;2.70;1.60;;;;;;;11.54;90.07;95855.59;106769;1275;22634;-77
2023/09/20 03:08:14;;;;;;;1.20;1.10;;;;;;;11.51;90.17;95853.73;106658;1275;23834;-77
2023/09/20 03:10:43;;;;;;;1.60;1.20;;;;;;;11.49;90.51;95852.16;106668;1275;24046;-77
2023/09/20 03:13:16;;;;;;;3.80;1.10;;;;;;;11.52;90.36;95854.59;106714;1275;24738;-77
2023/09/20 03:15:47;;;;;;;1.40;0.90;;;;;;;11.51;90.49;95858.63;106695;1275;25338;-77
2023/09/20 03:18:18;;;;;;;1.40;1.20;;;;;;;11.50;90.74;95856.20;106777;1275;22570;-78
2023/09/20 03:20:54;;;;;;;4.90;0.80;;;;;;;11.55;90.90;95852.75;106655;1275;22527;-77
2023/09/20 03:23:23;;;;;;;3.20;1.00;;;;;;;11.61;91.11;95854.22;106618;1275;22552;-77
2023/09/20 03:25:51;;;;;;;1.20;0.90;;;;;;;11.66;90.51;95851.66;106662;1275;23092;-77
2023/09/20 03:28:24;;;;;;;3.70;0.90;;;;;;;11.69;90.81;95849.66;106678;1275;23889;-77
2023/09/20 03:30:56;;;;;;;2.60;0.80;;;;;;;11.71;90.01;95849.80;106583;1275;25425;-77
2023/09/20 03:33:24;;;;;;;1.50;1.00;;;;;;;11.66;88.99;95850.61;106792;1275;22619;-77
2023/09/20 03:35:52;;;;;;;3.30;1.10;;;;;;;11.56;88.94;95854.85;106617;1275;22636;-77
2023/09/20 03:38:21;;;;;;;3.20;1.20;;;;;;;11.47;89.56;95859.59;106737;1275;25243;-77
2023/09/20 03:40:51;;;;;;;1.40;0.90;;;;;;;11.43;89.91;95860.36;106792;1275;25539;-78
2023/09/20 03:43:19;;;;;;;2.50;0.90;;;;;;;11.41;90.42;95853.34;106700;1272;22531;-77
2023/09/20 03:45:51;;;;;;;7.00;1.00;;;;;;;11.39;90.81;95855.85;106716;1275;22663;-77
2023/09/20 03:48:21;;;;;;;3.50;1.20;;;;;;;11.41;90.98;95860.04;106701;1275;22523;-77
2023/09/20 03:50:49;;;;;;;2.20;1.00;;;;;;;11.37;91.07;95859.40;106689;1275;24342;-77
2023/09/20 03:53:17;;;;;;;2.10;1.20;;;;;;;11.34;91.43;95857.52;106660;1275;25264;-80
2023/09/20 03:55:49;;;;;;;2.70;1.20;;;;;;;11.32;91.86;95855.10;106767;1275;26688;-77
2023/09/20 03:58:18;;;;;;;1.20;1.00;;;;;;;11.33;92.34;95853.84;106711;1275;25487;-77
2023/09/20 04:00:47;;;;;;;1.60;1.10;;;;;;;11.34;92.00;95855.23;106728;1275;22640;-77
2023/09/20 04:03:16;;;;;;;2.20;1.50;;;;;;;11.36;91.87;95857.33;106717;1275;23691;-77
2023/09/20 04:05:46;;;;;;;5.10;1.50;;;;;;;11.36;91.81;95863.65;106665;1275;24348;-77
2023/09/20 04:08:18;;;;;;;1.60;0.90;;;;;;;11.35;91.79;95863.84;106694;1275;24250;-77
2023/09/20 04:10:47;;;;;;;3.10;1.10;;;;;;;11.32;91.80;95870.05;106747;1260;24230;-77
2023/09/20 04:13:15;;;;;;;1.60;1.10;;;;;;;11.32;91.96;95872.02;106674;1257;23881;-78
2023/09/20 04:15:45;;;;;;;5.70;1.40;;;;;;;11.29;91.98;95872.41;106779;1275;24352;-77
2023/09/20 04:18:13;;;;;;;1.50;1.10;;;;;;;11.24;92.02;95874.77;106694;1275;24067;-78
2023/09/20 04:20:46;;;;;;;2.30;0.90;;;;;;;11.21;91.72;95875.52;106656;1275;25405;-78
2023/09/20 04:23:15;;;;;;;1.40;0.90;;;;;;;11.25;92.19;95872.47;106732;1275;22547;-77
2023/09/20 04:25:44;;;;;;;5.00;1.00;;;;;;;11.32;92.71;95878.00;106721;1275;22539;-78
2023/09/20 04:28:13;;;;;;;4.50;1.50;;;;;;;11.35;92.63;95879.01;106589;1275;22867;-77
2023/09/20 04:30:41;;;;;;;2.20;1.10;;;;;;;11.35;91.57;95880.92;106711;1264;24240;-78
2023/09/20 04:33:13;;;;;;;1.10;1.00;;;;;;;11.31;91.46;95879.41;106688;1275;22591;-77
2023/09/20 04:35:47;;;;;;;4.30;1.10;;;;;;;11.32;91.62;95876.40;106786;1275;25478;-78
2023/09/20 04:38:23;;;;;;;6.90;1.20;;;;;;;11.32;91.73;95877.45;106659;1275;25497;-77
2023/09/20 04:40:51;;;;;;;1.00;0.90;;;;;;;11.36;91.99;95877.23;106767;1275;22546;-78
2023/09/20 04:43:24;;;;;;;3.20;0.90;;;;;;;11.40;92.55;95875.38;106834;1275;22545;-77
2023/09/20 04:45:55;;;;;;;1.30;0.80;;;;;;;11.45;92.23;95874.77;106702;1275;25487;-77
2023/09/20 04:48:24;;;;;;;5.20;1.10;;;;;;;11.47;91.71;95878.61;106717;1275;25437;-78
2023/09/20 04:50:54;;;;;;;3.30;0.90;;;;;;;11.49;91.67;95877.70;106658;1275;24393;-77
2023/09/20 04:53:23;;;;;;;2.10;1.00;;;;;;;11.47;91.68;95878.27;106758;1275;25399;-77
2023/09/20 04:55:52;;;;;;;2.90;1.00;;;;;;;11.49;92.12;95883.86;106811;1275;22539;-78
2023/09/20 04:58:20;;;;;;;2.30;1.00;;;;;;;11.51;91.88;95885.77;106717;1273;25419;-75
2023/09/20 05:00:49;;;;;;;0.90;0.90;;;;;;;11.52;91.90;95882.05;106683;1275;24251;-79
2023/09/20 05:03:19;;;;;;;2.50;1.10;;;;;;;11.60;92.22;95883.84;106700;1275;25259;-77
2023/09/20 05:05:50;;;;;;;0.90;0.90;;;;;;;11.61;91.67;95882.59;106690;1275;22517;-77
2023/09/20 05:08:21;;;;;;;1.40;1.20;;;;;;;11.70;91.69;95883.31;106628;1264;24333;-76
2023/09/20 05:10:49;;;;;;;1.20;1.10;;;;;;;11.74;91.35;95883.06;106678;1275;25409;-76
2023/09/20 05:13:18;;;;;;;2.30;0.80;;;;;;;11.77;91.40;95883.02;106841;1275;22606;-76
2023/09/20 05:15:46;;;;;;;2.40;1.10;;;;;;;11.78;91.71;95878.23;106682;1275;25419;-76
2023/09/20 05:18:15;;;;;;;1.40;1.10;;;;;;;11.88;92.39;95882.29;106785;1275;25485;-77
2023/09/20 05:20:46;;;;;;;2.50;1.40;;;;;;;12.05;92.93;95875.10;106497;1275;25524;-76
2023/09/20 05:23:15;;;;;;;1.50;1.20;;;;;;;12.19;92.51;95871.46;106667;1275;22779;-75
2023/09/20 05:25:43;;;;;;;4.10;1.30;;;;;;;12.24;92.13;95876.66;106699;1275;24362;-77
2023/09/20 05:28:14;;;;;;;5.20;1.10;;;;;;;12.33;92.11;95875.77;106744;1275;22519;-77
2023/09/20 05:30:46;;;;;;;2.20;1.10;;;;;;;12.40;92.13;95871.38;106955;1275;25220;-76
2023/09/20 05:33:17;;;;;;;2.70;1.10;;;;;;;12.51;92.11;95867.27;106702;1275;25310;-77
2023/09/20 05:37:41;;;;;;;1.70;1.10;;;;;;;12.58;91.14;95863.76;103885;1303;545689;-77
2023/09/20 05:40:17;;;;;;;5.30;1.90;;;;;;;12.62;91.30;95871.42;106333;1286;22537;-77
2023/09/20 05:42:46;;;;;;;2.70;1.60;;;;;;;12.72;91.23;95871.39;106176;1286;23495;-76
2023/09/20 05:45:15;;;;;;;2.90;2.00;;;;;;;12.72;90.11;95872.09;106175;1286;22546;-78
2023/09/20 05:47:46;;;;;;;2.60;1.80;;;;;;;12.65;89.77;95877.91;106044;1286;22664;-80
2023/09/20 05:50:14;;;;;;;3.80;1.60;;;;;;;12.57;89.76;95876.84;105877;1276;257972;-78
2023/09/20 05:52:44;;;;;;;4.30;1.60;;;;;;;12.54;90.39;95873.36;106195;1283;25303;-79
2023/09/20 05:55:14;;;;;;;3.90;1.90;;;;;;;12.58;90.50;95876.83;106236;1283;22762;-78
2023/09/20 05:57:45;;;;;;;3.50;1.80;;;;;;;12.65;91.48;95875.97;106382;1283;26525;-80
2023/09/20 06:00:16;;;;;;;4.20;2.50;;;;;;;12.79;91.95;95881.98;106399;1283;22572;-78
2023/09/20 06:02:45;;;;;;;3.90;2.30;;;;;;;12.97;92.09;95883.36;106341;1283;22529;-77
2023/09/20 06:05:16;;;;;;;4.00;2.10;;;;;;;13.11;91.94;95890.27;106103;1283;24402;-78
2023/09/20 06:07:45;;;;;;;3.70;2.00;;;;;;;13.25;92.30;95887.83;106393;1283;25413;-78
2023/09/20 06:10:17;;;;;;;3.10;2.00;;;;;;;13.37;92.21;95886.48;107350;1272;24362;-78
2023/09/20 06:12:46;;;;;;;5.80;2.50;;;;;;;13.48;91.89;95878.77;107304;1272;24254;-77
2023/09/20 06:15:15;;;;;;;6.40;2.70;;;;;;;13.58;91.54;95887.20;107452;1272;22907;-79
2023/09/20 06:17:44;;;;;;;5.50;2.90;;;;;;;13.72;91.39;95885.61;107550;1272;24388;-78
2023/09/20 06:20:19;;;;;;;6.80;2.60;;;;;;;13.85;91.16;95887.20;107488;1272;22526;-78
2023/09/20 06:22:49;;;;;;;4.40;2.20;;;;;;;14.08;91.53;95884.80;107734;1272;24249;-81
2023/09/20 06:25:21;;;;;;;5.20;2.10;;;;;;;14.31;91.03;95887.00;107353;1262;22637;-78
2023/09/20 06:27:50;;;;;;;9.70;2.30;;;;;;;14.45;91.12;95886.39;107378;1272;22726;-79
2023/09/20 06:30:24;;;;;;;4.70;2.70;;;;;;;14.56;89.74;95885.24;107579;1272;23871;-79
2023/09/20 06:32:52;;;;;;;5.10;2.50;;;;;;;14.63;89.95;95883.60;107463;1272;22559;-78
2023/09/20 06:35:22;;;;;;;3.70;2.30;;;;;;;14.74;89.65;95883.80;107058;1272;22878;-79
2023/09/20 06:37:51;;;;;;;4.50;2.40;;;;;;;14.84;89.60;95888.67;107320;1269;25359;-78
2023/09/20 06:40:23;;;;;;;6.30;2.20;;;;;;;14.95;89.69;95892.02;107438;1272;22574;-78
2023/09/20 06:42:52;;;;;;;5.30;2.40;;;;;;;15.08;89.58;95894.98;107360;1272;22562;-79
2023/09/20 06:45:22;;;;;;;8.60;2.50;;;;;;;15.17;89.24;95899.69;107225;1272;22696;-78
2023/09/20 06:47:50;;;;;;;8.10;2.40;;;;;;;15.24;88.93;95907.27;107237;1273;24210;-77
2023/09/20 06:50:19;;;;;;;4.50;2.60;;;;;;;15.26;88.27;95913.72;107063;1273;24269;-78
2023/09/20 06:52:48;;;;;;;3.40;2.40;;;;;;;15.36;88.44;95908.08;106795;1273;22523;-77
2023/09/20 06:55:18;;;;;;;2.80;1.80;;;;;;;15.56;88.67;95909.41;106724;1272;24220;-79
2023/09/20 06:57:47;;;;;;;3.50;2.40;;;;;;;15.67;87.98;95906.19;107055;1273;22548;-77
2023/09/20 07:00:37;;;;;;;3.40;2.20;;;;;;;15.72;87.44;95909.94;107320;1273;22819;-79
2023/09/20 07:03:05;;;;;;;4.40;2.20;;;;;;;15.87;87.45;95912.48;107063;1273;25291;-78
2023/09/20 07:05:34;;;;;;;3.40;2.10;;;;;;;15.98;85.93;95913.33;107215;1273;24389;-80
2023/09/20 07:08:04;;;;;;;3.60;2.00;;;;;;;16.04;86.95;95912.40;106922;1273;24265;-78
2023/09/20 07:10:33;;;;;;;2.20;1.80;;;;;;;16.16;87.04;95912.88;107219;1267;22505;-78
2023/09/20 07:13:05;;;;;;;5.30;1.70;;;;;;;16.21;85.07;95909.69;107312;1266;23244;-76
2023/09/20 07:15:34;;;;;;;2.00;1.20;;;;;;;16.22;85.12;95912.83;107136;1273;24934;-77
2023/09/20 07:18:13;;;;;;;4.00;1.40;;;;;;;16.27;84.25;95913.39;107233;1273;22763;-78
2023/09/20 07:20:44;;;;;;;3.10;1.00;;;;;;;16.41;85.04;95916.25;107127;1273;25355;-78
2023/09/20 07:23:15;;;;;;;1.60;1.30;;;;;;;16.63;85.29;95918.48;107073;1273;24341;-77
2023/09/20 07:25:45;;;;;;;1.20;1.10;;;;;;;16.86;83.10;95919.08;107043;1273;25348;-78
2023/09/20 07:28:13;;;;;;;2.20;1.30;;;;;;;16.98;81.38;95915.73;107015;1273;25390;-77
2023/09/20 07:30:44;;;;;;;2.60;1.30;;;;;;;17.13;81.06;95918.17;107221;1268;23896;-77
2023/09/20 07:33:19;;;;;;;2.30;1.10;;;;;;;17.25;78.89;95921.78;107145;1270;22543;-78
2023/09/20 07:35:58;;;;;;;1.20;1.10;;;;;;;17.43;78.55;95921.80;107089;1267;22772;-78
2023/09/20 07:38:32;;;;;;;3.40;1.20;;;;;;;17.58;76.34;95922.44;107060;1267;22638;-87
2023/09/20 07:41:12;;;;;;;4.00;1.20;;;;;;;17.71;77.06;95914.25;107154;1251;23063;-85
2023/09/20 07:43:47;;;;;;;1.70;1.00;;;;;;;17.90;76.94;95917.55;106934;1273;24237;-81
2023/09/20 07:46:20;;;;;;;5.50;1.40;;;;;;;18.03;76.57;95919.69;107035;1270;22641;-85
2023/09/20 07:48:52;;;;;;;3.20;1.00;;;;;;;18.19;77.26;95915.42;107018;1270;22611;-82
2023/09/20 07:51:30;;;;;;;3.30;1.30;;;;;;;18.37;76.87;95911.81;106991;1270;25490;-85
2023/09/20 07:53:59;;;;;;;2.90;1.30;;;;;;;18.53;76.01;95909.11;107001;1273;24070;-83
2023/09/20 07:56:34;;;;;;;6.40;1.10;;;;;;;18.75;76.78;95910.64;106953;1270;22662;-85
2023/09/20 07:59:06;;;;;;;1.60;1.00;;;;;;;18.99;75.83;95910.10;106934;1266;25235;-82
2023/09/20 08:01:34;;;;;;;1.30;1.00;;;;;;;19.15;73.79;95911.30;107001;1270;22526;-83
2023/09/20 08:04:06;;;;;;;4.70;1.40;;;;;;;19.31;73.80;95908.73;107079;1273;23228;-83
2023/09/20 08:06:40;;;;;;;5.30;1.30;;;;;;;19.54;74.20;95907.11;107069;1273;22561;-86
2023/09/20 08:09:10;;;;;;;4.70;1.30;;;;;;;19.78;74.73;95908.66;107051;1273;24314;-88
2023/09/20 08:11:39;;;;;;;2.90;1.60;;;;;;;20.00;74.83;95906.09;106894;1273;22667;-83
2023/09/20 08:14:07;;;;;;;3.80;1.80;;;;;;;20.25;73.71;95902.85;106956;1273;22582;-85
2023/09/20 08:16:37;;;;;;;6.40;1.30;;;;;;;20.38;71.65;95903.61;106943;1273;22513;-86
2023/09/20 08:19:30;;;;;;;4.60;1.30;;;;;;;20.53;72.35;95904.43;107281;1273;22530;-87
2023/09/20 08:21:59;;;;;;;3.50;1.90;;;;;;;20.69;71.58;95900.55;107027;1273;26548;-84
2023/09/20 09:00:52;;;;;;;2.10;1.30;;;;;;;21.94;65.87;95886.96;107159;1272;25337;-85
2023/09/20 09:03:22;;;;;;;2.50;1.20;;;;;;;22.06;64.87;95886.80;107071;1272;22528;-85
2023/09/20 09:05:53;;;;;;;2.80;1.30;;;;;;;22.16;64.21;95884.41;107087;1272;22533;-83
2023/09/20 09:08:23;;;;;;;;;;;;;;;22.27;63.38;95887.17;107099;1272;24266;-82
2023/09/20 09:10:51;;;;;;;6.60;1.40;;;;;;;22.25;62.07;95885.33;107063;1272;24050;-84
2023/09/20 09:13:20;;;;;;;4.20;1.40;;;;;;;22.30;63.11;95883.98;107499;1272;22633;-82
2023/09/20 09:15:48;;;;;;;4.00;1.30;;;;;;;22.34;63.19;95884.75;106967;1272;22842;-83
2023/09/20 09:18:20;;;;;;;5.90;1.20;;;;;;;22.41;63.51;95881.86;107496;1272;22629;-84
2023/09/20 09:20:51;;;;;;;2.90;1.20;;;;;;;22.55;63.71;95877.77;107007;1272;22776;-85
2023/09/20 09:23:35;;;;;;;1.70;1.30;;;;;;;22.80;63.05;95879.28;107381;1272;22642;-85
2023/09/20 09:26:04;;;;;;;2.50;1.30;;;;;;;22.96;61.53;95875.59;107232;1272;22520;-86
2023/09/20 09:28:37;;;;;;;4.40;1.20;;;;;;;23.06;60.19;95873.35;107157;1272;22627;-84
2023/09/20 09:31:07;;;;;;;;;;;;;;;23.10;60.54;95875.95;106989;1272;26612;-83
2023/09/20 09:33:36;;;;;;;3.00;1.40;;;;;;;23.14;60.88;95876.98;107035;1272;23856;-83
2023/09/20 09:36:06;;;;;;;2.80;1.10;;;;;;;23.13;59.70;95873.95;107158;1272;22636;-85
2023/09/20 09:38:35;;;;;;;1.80;1.00;;;;;;;23.08;60.96;95870.16;107003;1272;22533;-83
2023/09/20 09:41:03;;;;;;;3.00;1.10;;;;;;;23.10;61.35;95869.17;107001;1270;24212;-84
2023/09/20 09:43:32;;;;;;;2.10;1.00;;;;;;;23.20;61.22;95868.17;106963;1272;22607;-85
2023/09/20 09:46:19;;;;;;;3.40;1.20;;;;;;;23.28;60.03;95863.52;106804;1272;22624;-84
2023/09/20 09:48:47;;;;;;;2.90;1.20;;;;;;;23.34;58.38;95860.58;106841;1273;22523;-83
2023/09/20 09:51:16;;;;;;;3.20;1.00;;;;;;;23.38;57.20;95853.91;107219;1272;22531;-82
2023/09/20 09:53:46;;;;;;;4.70;1.10;;;;;;;23.51;58.50;95848.72;106966;1272;22528;-85
2023/09/20 09:56:16;;;;;;;1.70;1.20;;;;;;;23.66;58.20;95852.07;107094;1269;24250;-83
2023/09/20 09:58:45;;;;;;;1.30;1.00;;;;;;;23.81;58.16;95849.31;107103;1272;24203;-84
2023/09/20 10:01:15;;;;;;;1.60;1.20;;;;;;;23.89;55.16;95846.08;106863;1272;22633;-82
2023/09/20 10:03:49;;;;;;;2.00;0.90;;;;;;;23.85;51.86;95845.63;107166;1272;23927;-84
2023/09/20 10:06:22;;;;;;;1.20;0.90;;;;;;;23.79;53.12;95847.09;107268;1270;25281;-86
2023/09/20 10:08:54;;;;;;;1.70;0.90;;;;;;;23.69;54.22;95847.74;107053;1272;24387;-81
2023/09/20 10:11:25;;;;;;;1.70;1.10;;;;;;;23.81;55.35;95843.89;107126;1272;25284;-84
2023/09/20 10:13:55;;;;;;;1.60;1.10;;;;;;;24.03;55.17;95840.98;107070;1272;25411;-84
2023/09/20 10:16:24;;;;;;;1.50;1.10;;;;;;;24.04;54.15;95843.09;107067;1273;22583;-82
2023/09/20 10:18:52;;;;;;;1.40;1.10;;;;;;;24.10;54.93;95841.79;106929;1272;24195;-82
2023/09/20 10:21:30;;;;;;;1.80;1.10;;;;;;;24.33;55.64;95838.17;107210;1269;24246;-83
2023/09/20 10:24:07;;;;;;;2.10;1.10;;;;;;;24.52;54.20;95839.07;107123;1251;22529;-84
2023/09/20 10:26:41;;;;;;;1.80;1.10;;;;;;;24.66;52.43;95836.64;107142;1272;23949;-85
2023/09/20 10:29:32;;;;;;;1.40;1.00;;;;;;;24.81;52.40;95838.46;107056;1270;22528;-83
2023/09/20 10:32:13;;;;;;;2.90;0.90;;;;;;;24.74;52.06;95836.40;107179;1272;25506;-83
2023/09/20 10:35:20;;;;;;;1.30;0.80;;;;;;;24.66;51.24;95837.88;106999;1272;25481;-82
2023/09/20 10:38:07;;;;;;;3.10;1.00;;;;;;;24.50;52.37;95843.67;106983;1272;24221;-83
2023/09/20 10:40:48;;;;;;;1.30;1.00;;;;;;;24.23;53.27;95844.08;107090;1272;24262;-83
2023/09/20 10:43:41;;;;;;;1.10;1.00;;;;;;;23.94;53.97;95842.51;107133;1257;22556;-81
2023/09/20 10:46:14;;;;;;;2.20;1.00;;;;;;;23.64;54.00;95843.95;106891;1272;22525;-83
2023/09/20 10:48:50;;;;;;;2.40;0.90;;;;;;;23.38;54.70;95841.48;106848;1273;25920;-83
2023/09/20 10:51:54;;;;;;;4.20;1.40;;;;;;;23.13;55.41;95847.61;106794;1267;22535;-85
2023/09/20 10:54:29;;;;;;;1.90;1.20;;;;;;;22.87;55.45;95852.46;106807;1273;24275;-82
2023/09/20 10:57:03;;;;;;;3.20;1.30;;;;;;;22.72;55.58;95849.98;107135;1273;22543;-83
2023/09/20 10:59:32;;;;;;;2.30;1.10;;;;;;;22.68;56.12;95847.01;107111;1272;22536;-82
2023/09/20 11:02:12;;;;;;;2.00;0.90;;;;;;;23.26;57.85;95844.23;107085;1273;24242;-82
2023/09/20 11:04:41;;;;;;;1.70;1.00;;;;;;;24.11;56.70;95839.71;106854;1272;22604;-83
2023/09/20 11:07:09;;;;;;;3.60;1.00;;;;;;;24.64;54.62;95839.28;107060;1251;22517;-83
2023/09/20 11:09:38;;;;;;;3.40;1.10;;;;;;;24.64;53.25;95836.23;106782;1272;25294;-83
2023/09/20 11:12:08;;;;;;;1.30;0.80;;;;;;;24.34;53.30;95839.77;107151;1272;26058;-83
2023/09/20 11:14:39;;;;;;;1.40;0.70;;;;;;;24.21;52.13;95838.13;106721;1272;25009;-84
2023/09/20 11:17:14;;;;;;;2.00;0.90;;;;;;;24.83;50.23;95834.32;106948;1272;23948;-83
2023/09/20 11:19:49;;;;;;;1.00;0.90;;;;;;;25.54;48.89;95833.17;107125;1272;24244;-85
2023/09/20 11:22:20;;;;;;;1.40;0.90;;;;;;;26.24;47.96;95826.25;106818;1272;24195;-82
2023/09/20 11:24:51;;;;;;;1.70;0.90;;;;;;;26.86;45.43;95827.62;107075;1272;25252;-84
2023/09/20 11:27:20;;;;;;;0.70;0.70;;;;;;;27.46;43.01;95828.77;106845;1272;22553;-82
2023/09/20 11:29:49;;;;;;;0.70;0.70;;;;;;;27.88;41.38;95826.01;106874;1272;22516;-84
2023/09/20 11:32:21;;;;;;;0.80;0.60;;;;;;;28.19;39.76;95828.81;107083;1272;24696;-82
2023/09/20 11:34:51;;;;;;;0.60;0.60;;;;;;;28.32;37.37;95824.47;106930;1272;22527;-82
2023/09/20 11:37:22;;;;;;;4.00;1.10;;;;;;;28.53;37.93;95821.60;107158;1272;22526;-84
2023/09/20 11:39:53;;;;;;;2.30;0.70;;;;;;;28.80;38.13;95819.55;106938;1272;25412;-88
2023/09/20 11:42:32;;;;;;;1.30;0.70;;;;;;;29.19;35.52;95818.71;106965;1272;22661;-82
2023/09/20 11:45:08;;;;;;;1.30;0.70;;;;;;;29.40;34.73;95818.95;107126;1272;24237;-83
2023/09/20 11:47:56;;;;;;;3.30;0.60;;;;;;;29.87;34.06;95815.46;107095;1273;24305;-84
2023/09/20 11:50:25;;;;;;;1.00;0.50;;;;;;;30.10;34.74;95815.70;106896;1272;25299;-83
2023/09/20 11:52:54;;;;;;;0.80;0.60;;;;;;;30.50;34.28;95811.06;107096;1272;22551;-82
2023/09/20 11:55:23;;;;;;;3.90;1.30;;;;;;;30.77;33.65;95808.69;107102;1272;24431;-83
2023/09/20 11:57:52;;;;;;;3.70;1.40;;;;;;;31.08;33.55;95807.69;106973;1272;22616;-84
2023/09/20 12:00:26;;;;;;;1.50;0.90;;;;;;;31.42;32.82;95805.98;107231;1272;24212;-85
2023/09/20 12:02:58;;;;;;;0.90;0.70;;;;;;;31.55;32.22;95807.33;106814;1272;26584;-82
2023/09/20 12:05:30;;;;;;;1.80;0.70;;;;;;;31.74;32.00;95809.59;106881;1273;22635;-88
2023/09/20 12:08:00;;;;;;;2.00;0.80;;;;;;;31.94;32.25;95805.80;107042;1272;22469;-86
2023/09/20 12:10:30;;;;;;;2.70;0.90;;;;;;;32.15;30.91;95805.95;106866;1272;25378;-82
2023/09/20 12:12:59;;;;;;;2.70;1.00;;;;;;;32.23;30.96;95808.98;107181;1272;22643;-84
2023/09/20 12:15:27;;;;;;;2.70;0.90;;;;;;;32.33;30.61;95807.23;107238;1272;25331;-83
2023/09/20 12:17:55;;;;;;;4.70;1.10;;;;;;;32.60;30.87;95803.25;107104;1272;25348;-83
2023/09/20 12:20:25;;;;;;;1.00;0.80;;;;;;;32.88;30.57;95799.23;107168;1272;22545;-84
2023/09/20 12:23:00;;;;;;;1.40;0.70;;;;;;;32.93;29.34;95797.14;106902;1266;24217;-83